sensor_id;sensor_type;location;lat;lon;timestamp;temperature;humidity
56046;DHT22;41913;51.030;3.706;2022-07-23T00:02:15;17.40;99.90
56046;DHT22;41913;51.030;3.706;2022-07-23T00:04:41;17.40;99.90
56046;DHT22;41913;51.030;3.706;2022-07-23T00:07:07;17.30;99.90
56046;DHT22;41913;51.030;3.706;2022-07-23T00:09:33;17.20;99.90
56046;DHT22;41913;51.030;3.706;2022-07-23T00:11:59;17.20;99.90
56046;DHT22;41913;51.030;3.706;2022-07-23T00:14:25;17.20;99.90
56046;DHT22;41913;51.030;3.706;2022-07-23T00:16:50;17.20;99.90
56046;DHT22;41913;51.030;3.706;2022-07-23T00:19:16;17.20;99.90
56046;DHT22;41913;51.030;3.706;2022-07-23T00:21:42;17.30;99.90
56046;DHT22;41913;51.030;3.706;2022-07-23T00:24:07;17.30;99.90
56046;DHT22;41913;51.030;3.706;2022-07-23T00:26:33;17.30;99.90
56046;DHT22;41913;51.030;3.706;2022-07-23T00:28:59;17.30;99.90
56046;DHT22;41913;51.030;3.706;2022-07-23T00:31:24;17.20;99.90
56046;DHT22;41913;51.030;3.706;2022-07-23T00:33:50;17.10;99.90
56046;DHT22;41913;51.030;3.706;2022-07-23T00:36:16;17.10;99.90
56046;DHT22;41913;51.030;3.706;2022-07-23T00:38:41;17.10;99.90
56046;DHT22;41913;51.030;3.706;2022-07-23T00:41:07;17.10;99.90
56046;DHT22;41913;51.030;3.706;2022-07-23T00:43:36;17.10;99.90
56046;DHT22;41913;51.030;3.706;2022-07-23T00:46:05;17.00;99.90
56046;DHT22;41913;51.030;3.706;2022-07-23T00:48:32;17.00;99.90
56046;DHT22;41913;51.030;3.706;2022-07-23T00:50:58;17.10;99.90
56046;DHT22;41913;51.030;3.706;2022-07-23T00:53:26;17.10;99.90
56046;DHT22;41913;51.030;3.706;2022-07-23T00:55:53;17.00;99.90
56046;DHT22;41913;51.030;3.706;2022-07-23T00:58:19;17.00;99.90
56046;DHT22;41913;51.030;3.706;2022-07-23T01:00:51;16.80;99.90
56046;DHT22;41913;51.030;3.706;2022-07-23T01:03:16;16.80;99.90
56046;DHT22;41913;51.030;3.706;2022-07-23T01:05:42;16.80;99.90
56046;DHT22;41913;51.030;3.706;2022-07-23T01:08:09;16.70;99.90
56046;DHT22;41913;51.030;3.706;2022-07-23T01:10:36;16.80;99.90
56046;DHT22;41913;51.030;3.706;2022-07-23T01:13:09;16.80;99.90
56046;DHT22;41913;51.030;3.706;2022-07-23T01:15:36;16.80;99.90
56046;DHT22;41913;51.030;3.706;2022-07-23T01:18:04;16.80;99.90
56046;DHT22;41913;51.030;3.706;2022-07-23T01:20:31;16.80;99.90
56046;DHT22;41913;51.030;3.706;2022-07-23T01:22:59;16.80;99.90
56046;DHT22;41913;51.030;3.706;2022-07-23T01:25:26;16.80;99.90
56046;DHT22;41913;51.030;3.706;2022-07-23T01:27:52;16.80;99.90
56046;DHT22;41913;51.030;3.706;2022-07-23T01:30:19;16.70;99.90
56046;DHT22;41913;51.030;3.706;2022-07-23T01:32:45;16.80;99.90
56046;DHT22;41913;51.030;3.706;2022-07-23T01:35:11;17.00;99.90
56046;DHT22;41913;51.030;3.706;2022-07-23T01:37:39;17.00;99.90
56046;DHT22;41913;51.030;3.706;2022-07-23T01:40:05;16.90;99.90
56046;DHT22;41913;51.030;3.706;2022-07-23T01:42:31;16.80;99.90
56046;DHT22;41913;51.030;3.706;2022-07-23T01:44:57;16.70;99.90
56046;DHT22;41913;51.030;3.706;2022-07-23T01:47:23;16.70;99.90
56046;DHT22;41913;51.030;3.706;2022-07-23T01:49:49;16.60;99.90
56046;DHT22;41913;51.030;3.706;2022-07-23T01:52:14;16.60;99.90
56046;DHT22;41913;51.030;3.706;2022-07-23T01:54:40;16.60;99.90
56046;DHT22;41913;51.030;3.706;2022-07-23T01:57:06;16.70;99.90
56046;DHT22;41913;51.030;3.706;2022-07-23T01:59:33;16.60;99.90
56046;DHT22;41913;51.030;3.706;2022-07-23T02:01:59;16.60;99.90
56046;DHT22;41913;51.030;3.706;2022-07-23T02:04:25;16.60;99.90
56046;DHT22;41913;51.030;3.706;2022-07-23T02:06:52;16.50;99.90
56046;DHT22;41913;51.030;3.706;2022-07-23T02:09:19;16.50;99.90
56046;DHT22;41913;51.030;3.706;2022-07-23T02:11:45;16.50;99.90
56046;DHT22;41913;51.030;3.706;2022-07-23T02:14:11;16.50;99.90
56046;DHT22;41913;51.030;3.706;2022-07-23T02:16:38;16.50;99.90
56046;DHT22;41913;51.030;3.706;2022-07-23T02:19:04;16.50;99.90
56046;DHT22;41913;51.030;3.706;2022-07-23T02:21:30;16.50;99.90
56046;DHT22;41913;51.030;3.706;2022-07-23T02:23:58;16.40;99.90
56046;DHT22;41913;51.030;3.706;2022-07-23T02:26:25;16.50;99.90
56046;DHT22;41913;51.030;3.706;2022-07-23T02:28:51;16.50;99.90
56046;DHT22;41913;51.030;3.706;2022-07-23T02:31:18;16.50;99.90
56046;DHT22;41913;51.030;3.706;2022-07-23T02:33:45;16.50;99.90
56046;DHT22;41913;51.030;3.706;2022-07-23T02:36:10;16.50;99.90
56046;DHT22;41913;51.030;3.706;2022-07-23T02:38:36;16.60;99.90
56046;DHT22;41913;51.030;3.706;2022-07-23T02:41:01;16.60;99.90
56046;DHT22;41913;51.030;3.706;2022-07-23T02:43:27;16.60;99.90
56046;DHT22;41913;51.030;3.706;2022-07-23T02:45:53;16.60;99.90
56046;DHT22;41913;51.030;3.706;2022-07-23T02:48:20;16.60;99.90
56046;DHT22;41913;51.030;3.706;2022-07-23T02:50:46;16.70;99.90
56046;DHT22;41913;51.030;3.706;2022-07-23T02:53:12;16.60;99.90
56046;DHT22;41913;51.030;3.706;2022-07-23T02:55:38;16.50;99.90
56046;DHT22;41913;51.030;3.706;2022-07-23T02:58:03;16.60;99.90
56046;DHT22;41913;51.030;3.706;2022-07-23T03:00:29;16.60;99.90
56046;DHT22;41913;51.030;3.706;2022-07-23T03:02:55;16.60;99.90
56046;DHT22;41913;51.030;3.706;2022-07-23T03:05:21;16.70;99.90
56046;DHT22;41913;51.030;3.706;2022-07-23T03:07:46;16.80;99.90
56046;DHT22;41913;51.030;3.706;2022-07-23T03:10:12;16.70;99.90
56046;DHT22;41913;51.030;3.706;2022-07-23T03:12:38;16.60;99.90
56046;DHT22;41913;51.030;3.706;2022-07-23T03:15:04;16.60;99.90
56046;DHT22;41913;51.030;3.706;2022-07-23T03:17:30;16.60;99.90
56046;DHT22;41913;51.030;3.706;2022-07-23T03:19:58;16.50;99.90
56046;DHT22;41913;51.030;3.706;2022-07-23T03:22:31;16.60;99.90
56046;DHT22;41913;51.030;3.706;2022-07-23T03:24:59;16.60;99.90
56046;DHT22;41913;51.030;3.706;2022-07-23T03:27:34;16.60;99.90
56046;DHT22;41913;51.030;3.706;2022-07-23T03:30:01;16.60;99.90
56046;DHT22;41913;51.030;3.706;2022-07-23T03:32:27;16.70;99.90
56046;DHT22;41913;51.030;3.706;2022-07-23T03:34:53;16.80;99.90
56046;DHT22;41913;51.030;3.706;2022-07-23T03:37:21;16.90;99.90
56046;DHT22;41913;51.030;3.706;2022-07-23T03:39:47;17.10;99.90
56046;DHT22;41913;51.030;3.706;2022-07-23T03:42:14;17.00;99.90
56046;DHT22;41913;51.030;3.706;2022-07-23T03:44:41;17.20;99.90
56046;DHT22;41913;51.030;3.706;2022-07-23T03:47:07;17.20;99.90
56046;DHT22;41913;51.030;3.706;2022-07-23T03:49:34;17.00;99.90
56046;DHT22;41913;51.030;3.706;2022-07-23T03:52:00;16.90;99.90
56046;DHT22;41913;51.030;3.706;2022-07-23T03:54:27;16.90;99.90
56046;DHT22;41913;51.030;3.706;2022-07-23T03:56:53;17.00;99.90
56046;DHT22;41913;51.030;3.706;2022-07-23T03:59:19;17.00;99.90
56046;DHT22;41913;51.030;3.706;2022-07-23T04:01:44;17.10;99.90
56046;DHT22;41913;51.030;3.706;2022-07-23T04:04:10;17.10;99.90
56046;DHT22;41913;51.030;3.706;2022-07-23T04:06:36;17.00;99.90
56046;DHT22;41913;51.030;3.706;2022-07-23T04:09:02;16.90;99.90
56046;DHT22;41913;51.030;3.706;2022-07-23T04:11:28;16.90;99.90
56046;DHT22;41913;51.030;3.706;2022-07-23T04:13:53;16.70;99.90
56046;DHT22;41913;51.030;3.706;2022-07-23T04:16:19;16.80;99.90
56046;DHT22;41913;51.030;3.706;2022-07-23T04:18:45;16.80;99.90
56046;DHT22;41913;51.030;3.706;2022-07-23T04:21:10;16.80;99.90
56046;DHT22;41913;51.030;3.706;2022-07-23T04:23:36;16.80;99.90
56046;DHT22;41913;51.030;3.706;2022-07-23T04:26:02;16.90;99.90
56046;DHT22;41913;51.030;3.706;2022-07-23T04:28:27;16.90;99.90
56046;DHT22;41913;51.030;3.706;2022-07-23T04:30:59;17.00;99.90
56046;DHT22;41913;51.030;3.706;2022-07-23T04:33:25;16.90;99.90
56046;DHT22;41913;51.030;3.706;2022-07-23T04:35:50;16.70;99.90
56046;DHT22;41913;51.030;3.706;2022-07-23T04:38:16;16.70;99.90
56046;DHT22;41913;51.030;3.706;2022-07-23T04:40:42;16.70;99.90
56046;DHT22;41913;51.030;3.706;2022-07-23T04:43:11;16.80;99.90
56046;DHT22;41913;51.030;3.706;2022-07-23T04:45:36;16.90;99.90
56046;DHT22;41913;51.030;3.706;2022-07-23T04:48:02;16.90;99.90
56046;DHT22;41913;51.030;3.706;2022-07-23T04:50:28;17.00;99.90
56046;DHT22;41913;51.030;3.706;2022-07-23T04:52:53;17.00;99.90
56046;DHT22;41913;51.030;3.706;2022-07-23T04:55:19;17.10;99.90
56046;DHT22;41913;51.030;3.706;2022-07-23T04:57:46;17.20;99.90
56046;DHT22;41913;51.030;3.706;2022-07-23T05:00:12;17.30;99.90
56046;DHT22;41913;51.030;3.706;2022-07-23T05:02:40;17.40;99.90
56046;DHT22;41913;51.030;3.706;2022-07-23T05:05:06;17.40;99.90
56046;DHT22;41913;51.030;3.706;2022-07-23T05:07:31;17.30;99.90
56046;DHT22;41913;51.030;3.706;2022-07-23T05:09:58;17.20;99.90
56046;DHT22;41913;51.030;3.706;2022-07-23T05:12:26;17.20;99.90
56046;DHT22;41913;51.030;3.706;2022-07-23T05:14:51;17.30;99.90
56046;DHT22;41913;51.030;3.706;2022-07-23T05:17:20;17.40;99.90
56046;DHT22;41913;51.030;3.706;2022-07-23T05:19:45;17.40;99.90
56046;DHT22;41913;51.030;3.706;2022-07-23T05:22:12;17.50;99.90
56046;DHT22;41913;51.030;3.706;2022-07-23T05:24:38;17.40;99.90
56046;DHT22;41913;51.030;3.706;2022-07-23T05:27:05;17.50;99.90
56046;DHT22;41913;51.030;3.706;2022-07-23T05:29:30;17.60;99.90
56046;DHT22;41913;51.030;3.706;2022-07-23T05:31:56;17.70;99.90
56046;DHT22;41913;51.030;3.706;2022-07-23T05:34:21;17.90;99.90
56046;DHT22;41913;51.030;3.706;2022-07-23T05:36:47;18.10;99.90
56046;DHT22;41913;51.030;3.706;2022-07-23T05:39:14;18.30;99.90
56046;DHT22;41913;51.030;3.706;2022-07-23T05:41:39;18.40;99.90
56046;DHT22;41913;51.030;3.706;2022-07-23T05:44:05;18.50;99.90
56046;DHT22;41913;51.030;3.706;2022-07-23T05:46:31;18.60;99.90
56046;DHT22;41913;51.030;3.706;2022-07-23T05:48:56;18.90;99.90
56046;DHT22;41913;51.030;3.706;2022-07-23T05:51:23;19.00;99.90
56046;DHT22;41913;51.030;3.706;2022-07-23T05:53:49;18.90;99.90
56046;DHT22;41913;51.030;3.706;2022-07-23T05:56:16;18.50;99.90
56046;DHT22;41913;51.030;3.706;2022-07-23T05:58:42;18.50;99.90
56046;DHT22;41913;51.030;3.706;2022-07-23T06:01:07;18.10;99.90
56046;DHT22;41913;51.030;3.706;2022-07-23T06:03:33;18.20;99.90
56046;DHT22;41913;51.030;3.706;2022-07-23T06:06:02;18.30;99.90
56046;DHT22;41913;51.030;3.706;2022-07-23T06:08:31;18.40;99.90
56046;DHT22;41913;51.030;3.706;2022-07-23T06:10:56;18.50;99.90
56046;DHT22;41913;51.030;3.706;2022-07-23T06:13:22;18.80;99.90
56046;DHT22;41913;51.030;3.706;2022-07-23T06:15:49;18.60;99.90
56046;DHT22;41913;51.030;3.706;2022-07-23T06:18:14;18.50;99.90
56046;DHT22;41913;51.030;3.706;2022-07-23T06:20:40;18.70;99.90
56046;DHT22;41913;51.030;3.706;2022-07-23T06:23:06;18.80;99.90
56046;DHT22;41913;51.030;3.706;2022-07-23T06:25:33;18.80;99.90
56046;DHT22;41913;51.030;3.706;2022-07-23T06:27:59;19.10;99.90
56046;DHT22;41913;51.030;3.706;2022-07-23T06:30:31;19.00;99.90
56046;DHT22;41913;51.030;3.706;2022-07-23T06:32:58;18.90;99.90
56046;DHT22;41913;51.030;3.706;2022-07-23T06:35:24;19.10;99.90
56046;DHT22;41913;51.030;3.706;2022-07-23T06:37:51;19.50;99.90
56046;DHT22;41913;51.030;3.706;2022-07-23T06:40:17;19.70;99.90
56046;DHT22;41913;51.030;3.706;2022-07-23T06:42:45;19.70;99.90
56046;DHT22;41913;51.030;3.706;2022-07-23T06:45:10;19.90;99.90
56046;DHT22;41913;51.030;3.706;2022-07-23T06:47:37;20.40;99.90
56046;DHT22;41913;51.030;3.706;2022-07-23T06:50:04;21.80;99.90
56046;DHT22;41913;51.030;3.706;2022-07-23T06:52:31;22.50;99.90
56046;DHT22;41913;51.030;3.706;2022-07-23T06:54:58;23.00;99.90
56046;DHT22;41913;51.030;3.706;2022-07-23T06:57:23;24.20;98.00
56046;DHT22;41913;51.030;3.706;2022-07-23T06:59:51;24.90;95.70
56046;DHT22;41913;51.030;3.706;2022-07-23T07:02:17;25.90;93.60
56046;DHT22;41913;51.030;3.706;2022-07-23T07:04:43;26.90;92.20
56046;DHT22;41913;51.030;3.706;2022-07-23T07:07:08;28.10;90.70
56046;DHT22;41913;51.030;3.706;2022-07-23T07:09:34;29.10;86.50
56046;DHT22;41913;51.030;3.706;2022-07-23T07:12:00;30.10;83.00
56046;DHT22;41913;51.030;3.706;2022-07-23T07:14:26;30.20;79.80
56046;DHT22;41913;51.030;3.706;2022-07-23T07:16:52;31.20;78.00
56046;DHT22;41913;51.030;3.706;2022-07-23T07:19:18;32.30;75.60
56046;DHT22;41913;51.030;3.706;2022-07-23T07:21:50;33.30;73.20
56046;DHT22;41913;51.030;3.706;2022-07-23T07:24:17;34.10;70.40
56046;DHT22;41913;51.030;3.706;2022-07-23T07:26:43;34.60;68.20
56046;DHT22;41913;51.030;3.706;2022-07-23T07:29:09;35.30;67.10
56046;DHT22;41913;51.030;3.706;2022-07-23T07:31:41;36.10;65.40
56046;DHT22;41913;51.030;3.706;2022-07-23T07:34:07;36.90;63.30
56046;DHT22;41913;51.030;3.706;2022-07-23T07:36:33;36.90;61.00
56046;DHT22;41913;51.030;3.706;2022-07-23T07:39:00;36.90;60.60
56046;DHT22;41913;51.030;3.706;2022-07-23T07:41:25;36.80;60.60
56046;DHT22;41913;51.030;3.706;2022-07-23T07:43:54;36.70;60.30
56046;DHT22;41913;51.030;3.706;2022-07-23T07:46:19;36.30;59.80
56046;DHT22;41913;51.030;3.706;2022-07-23T07:48:45;36.20;59.60
56046;DHT22;41913;51.030;3.706;2022-07-23T07:51:12;37.00;59.40
56046;DHT22;41913;51.030;3.706;2022-07-23T07:53:38;37.80;57.80
56046;DHT22;41913;51.030;3.706;2022-07-23T07:56:04;37.40;57.30
56046;DHT22;41913;51.030;3.706;2022-07-23T07:58:30;37.30;57.10
56046;DHT22;41913;51.030;3.706;2022-07-23T08:00:58;36.90;56.60
56046;DHT22;41913;51.030;3.706;2022-07-23T08:03:27;36.30;57.80
56046;DHT22;41913;51.030;3.706;2022-07-23T08:05:52;35.50;57.90
56046;DHT22;41913;51.030;3.706;2022-07-23T08:08:18;34.50;58.80
56046;DHT22;41913;51.030;3.706;2022-07-23T08:10:44;32.70;60.40
56046;DHT22;41913;51.030;3.706;2022-07-23T08:13:13;31.70;62.20
56046;DHT22;41913;51.030;3.706;2022-07-23T08:15:45;30.90;63.20
56046;DHT22;41913;51.030;3.706;2022-07-23T08:18:11;30.50;63.90
56046;DHT22;41913;51.030;3.706;2022-07-23T08:20:39;30.40;64.40
56046;DHT22;41913;51.030;3.706;2022-07-23T08:23:09;30.40;64.90
56046;DHT22;41913;51.030;3.706;2022-07-23T08:25:41;29.40;66.40
56046;DHT22;41913;51.030;3.706;2022-07-23T08:28:09;30.00;66.00
56046;DHT22;41913;51.030;3.706;2022-07-23T08:30:36;29.90;65.60
56046;DHT22;41913;51.030;3.706;2022-07-23T08:33:10;30.70;64.30
56046;DHT22;41913;51.030;3.706;2022-07-23T08:35:44;31.80;64.20
56046;DHT22;41913;51.030;3.706;2022-07-23T08:38:14;33.20;61.90
56046;DHT22;41913;51.030;3.706;2022-07-23T08:40:42;34.50;60.00
56046;DHT22;41913;51.030;3.706;2022-07-23T08:43:12;36.10;58.50
56046;DHT22;41913;51.030;3.706;2022-07-23T08:45:40;37.30;56.70
56046;DHT22;41913;51.030;3.706;2022-07-23T08:48:14;37.80;55.20
56046;DHT22;41913;51.030;3.706;2022-07-23T08:50:50;37.70;54.30
56046;DHT22;41913;51.030;3.706;2022-07-23T08:53:18;37.00;54.40
56046;DHT22;41913;51.030;3.706;2022-07-23T08:55:53;35.70;55.70
56046;DHT22;41913;51.030;3.706;2022-07-23T08:58:19;35.40;55.80
56046;DHT22;41913;51.030;3.706;2022-07-23T09:00:47;35.40;56.00
56046;DHT22;41913;51.030;3.706;2022-07-23T09:03:20;35.10;55.70
56046;DHT22;41913;51.030;3.706;2022-07-23T09:05:46;34.90;55.60
56046;DHT22;41913;51.030;3.706;2022-07-23T09:08:16;34.20;56.40
56046;DHT22;41913;51.030;3.706;2022-07-23T09:11:02;34.10;56.80
56046;DHT22;41913;51.030;3.706;2022-07-23T09:13:35;35.40;55.20
56046;DHT22;41913;51.030;3.706;2022-07-23T09:16:09;36.40;54.90
56046;DHT22;41913;51.030;3.706;2022-07-23T09:18:51;37.40;53.80
56046;DHT22;41913;51.030;3.706;2022-07-23T09:26:40;39.30;51.40
56046;DHT22;41913;51.030;3.706;2022-07-23T09:29:15;40.60;50.00
56046;DHT22;41913;51.030;3.706;2022-07-23T09:31:59;41.30;48.90
56046;DHT22;41913;51.030;3.706;2022-07-23T09:34:27;41.20;48.00
56046;DHT22;41913;51.030;3.706;2022-07-23T09:36:58;40.40;47.60
56046;DHT22;41913;51.030;3.706;2022-07-23T09:39:33;39.70;48.00
56046;DHT22;41913;51.030;3.706;2022-07-23T09:42:25;39.80;49.10
56046;DHT22;41913;51.030;3.706;2022-07-23T09:44:56;40.50;48.20
56046;DHT22;41913;51.030;3.706;2022-07-23T09:47:24;40.40;48.30
56046;DHT22;41913;51.030;3.706;2022-07-23T09:50:09;40.00;48.10
56046;DHT22;41913;51.030;3.706;2022-07-23T09:52:46;39.60;49.00
56046;DHT22;41913;51.030;3.706;2022-07-23T09:55:16;39.10;49.10
56046;DHT22;41913;51.030;3.706;2022-07-23T09:57:46;39.10;49.10
56046;DHT22;41913;51.030;3.706;2022-07-23T10:00:31;39.50;48.30
56046;DHT22;41913;51.030;3.706;2022-07-23T10:02:58;39.90;48.20
56046;DHT22;41913;51.030;3.706;2022-07-23T10:05:25;40.90;47.70
56046;DHT22;41913;51.030;3.706;2022-07-23T10:07:54;41.50;47.00
56046;DHT22;41913;51.030;3.706;2022-07-23T10:10:21;42.10;46.00
56046;DHT22;41913;51.030;3.706;2022-07-23T10:12:47;42.30;45.40
56046;DHT22;41913;51.030;3.706;2022-07-23T10:15:16;41.40;44.70
56046;DHT22;41913;51.030;3.706;2022-07-23T10:17:43;41.40;45.20
56046;DHT22;41913;51.030;3.706;2022-07-23T10:20:09;42.00;45.00
56046;DHT22;41913;51.030;3.706;2022-07-23T10:22:43;42.30;44.80
56046;DHT22;41913;51.030;3.706;2022-07-23T10:25:26;42.70;44.20
56046;DHT22;41913;51.030;3.706;2022-07-23T10:33:25;42.90;43.30
56046;DHT22;41913;51.030;3.706;2022-07-23T10:35:55;43.10;44.50
56046;DHT22;41913;51.030;3.706;2022-07-23T10:38:33;43.40;43.90
56046;DHT22;41913;51.030;3.706;2022-07-23T10:41:04;42.80;43.40
56046;DHT22;41913;51.030;3.706;2022-07-23T10:43:31;42.00;43.80
56046;DHT22;41913;51.030;3.706;2022-07-23T10:46:21;42.00;44.40
56046;DHT22;41913;51.030;3.706;2022-07-23T10:52:23;42.90;42.50
56046;DHT22;41913;51.030;3.706;2022-07-23T10:57:48;42.30;42.70
56046;DHT22;41913;51.030;3.706;2022-07-23T11:00:15;39.20;44.90
56046;DHT22;41913;51.030;3.706;2022-07-23T11:02:45;39.10;45.30
56046;DHT22;41913;51.030;3.706;2022-07-23T11:05:23;39.50;45.60
56046;DHT22;41913;51.030;3.706;2022-07-23T11:10:42;40.30;45.40
56046;DHT22;41913;51.030;3.706;2022-07-23T11:13:36;38.20;46.10
56046;DHT22;41913;51.030;3.706;2022-07-23T11:18:52;37.50;47.00
56046;DHT22;41913;51.030;3.706;2022-07-23T11:24:12;34.30;49.30
56046;DHT22;41913;51.030;3.706;2022-07-23T11:34:41;32.40;51.40
56046;DHT22;41913;51.030;3.706;2022-07-23T11:39:55;31.10;53.20
56046;DHT22;41913;51.030;3.706;2022-07-23T11:42:21;30.80;53.20
56046;DHT22;41913;51.030;3.706;2022-07-23T11:44:50;30.70;54.30
56046;DHT22;41913;51.030;3.706;2022-07-23T11:47:25;30.80;53.80
56046;DHT22;41913;51.030;3.706;2022-07-23T11:49:56;30.90;54.30
56046;DHT22;41913;51.030;3.706;2022-07-23T11:52:24;30.70;53.70
56046;DHT22;41913;51.030;3.706;2022-07-23T11:54:58;30.70;55.10
56046;DHT22;41913;51.030;3.706;2022-07-23T11:57:30;30.60;57.30
56046;DHT22;41913;51.030;3.706;2022-07-23T11:59:58;30.50;57.90
56046;DHT22;41913;51.030;3.706;2022-07-23T12:02:26;30.60;55.40
56046;DHT22;41913;51.030;3.706;2022-07-23T12:04:52;30.30;54.60
56046;DHT22;41913;51.030;3.706;2022-07-23T12:07:31;29.50;56.00
56046;DHT22;41913;51.030;3.706;2022-07-23T12:10:27;29.80;58.00
56046;DHT22;41913;51.030;3.706;2022-07-23T12:13:11;30.20;57.80
56046;DHT22;41913;51.030;3.706;2022-07-23T12:15:44;30.60;56.20
56046;DHT22;41913;51.030;3.706;2022-07-23T12:18:16;30.60;55.80
56046;DHT22;41913;51.030;3.706;2022-07-23T12:20:47;30.50;56.70
56046;DHT22;41913;51.030;3.706;2022-07-23T12:23:15;30.60;56.80
56046;DHT22;41913;51.030;3.706;2022-07-23T12:25:47;30.60;56.00
56046;DHT22;41913;51.030;3.706;2022-07-23T12:28:20;30.70;56.50
56046;DHT22;41913;51.030;3.706;2022-07-23T12:30:48;30.70;56.10
56046;DHT22;41913;51.030;3.706;2022-07-23T12:35:57;30.40;56.80
56046;DHT22;41913;51.030;3.706;2022-07-23T12:38:25;30.40;56.70
56046;DHT22;41913;51.030;3.706;2022-07-23T12:40:53;30.30;56.80
56046;DHT22;41913;51.030;3.706;2022-07-23T12:43:33;30.30;56.60
56046;DHT22;41913;51.030;3.706;2022-07-23T12:48:55;29.60;58.80
56046;DHT22;41913;51.030;3.706;2022-07-23T12:51:25;29.80;58.90
56046;DHT22;41913;51.030;3.706;2022-07-23T12:53:55;30.20;57.20
56046;DHT22;41913;51.030;3.706;2022-07-23T12:56:35;30.50;56.90
56046;DHT22;41913;51.030;3.706;2022-07-23T13:01:34;30.90;56.90
56046;DHT22;41913;51.030;3.706;2022-07-23T13:04:19;30.80;57.40
56046;DHT22;41913;51.030;3.706;2022-07-23T13:06:53;30.60;58.00
56046;DHT22;41913;51.030;3.706;2022-07-23T13:09:27;30.80;57.30
56046;DHT22;41913;51.030;3.706;2022-07-23T13:11:54;30.50;57.60
56046;DHT22;41913;51.030;3.706;2022-07-23T13:14:21;30.20;57.50
56046;DHT22;41913;51.030;3.706;2022-07-23T13:16:51;30.30;57.60
56046;DHT22;41913;51.030;3.706;2022-07-23T13:19:19;30.20;58.80
56046;DHT22;41913;51.030;3.706;2022-07-23T13:21:48;30.50;57.80
56046;DHT22;41913;51.030;3.706;2022-07-23T13:24:16;30.40;58.10
56046;DHT22;41913;51.030;3.706;2022-07-23T13:26:48;30.30;58.90
56046;DHT22;41913;51.030;3.706;2022-07-23T13:29:16;30.50;58.60
56046;DHT22;41913;51.030;3.706;2022-07-23T13:31:41;30.40;58.30
56046;DHT22;41913;51.030;3.706;2022-07-23T13:34:07;30.60;57.00
56046;DHT22;41913;51.030;3.706;2022-07-23T13:36:35;30.80;57.40
56046;DHT22;41913;51.030;3.706;2022-07-23T13:39:01;30.90;56.90
56046;DHT22;41913;51.030;3.706;2022-07-23T13:41:28;31.10;57.00
56046;DHT22;41913;51.030;3.706;2022-07-23T13:43:54;31.30;56.40
56046;DHT22;41913;51.030;3.706;2022-07-23T13:46:21;31.20;56.40
56046;DHT22;41913;51.030;3.706;2022-07-23T13:48:47;30.90;56.50
56046;DHT22;41913;51.030;3.706;2022-07-23T13:51:12;30.50;57.60
56046;DHT22;41913;51.030;3.706;2022-07-23T13:53:39;29.90;58.10
56046;DHT22;41913;51.030;3.706;2022-07-23T13:56:06;29.90;59.70
56046;DHT22;41913;51.030;3.706;2022-07-23T13:58:32;30.00;58.20
56046;DHT22;41913;51.030;3.706;2022-07-23T14:00:58;29.50;58.70
56046;DHT22;41913;51.030;3.706;2022-07-23T14:03:23;29.70;58.60
56046;DHT22;41913;51.030;3.706;2022-07-23T14:05:52;30.00;59.30
56046;DHT22;41913;51.030;3.706;2022-07-23T14:08:18;30.30;58.50
56046;DHT22;41913;51.030;3.706;2022-07-23T14:10:44;30.50;58.20
56046;DHT22;41913;51.030;3.706;2022-07-23T14:13:10;30.50;58.00
56046;DHT22;41913;51.030;3.706;2022-07-23T14:15:36;30.70;57.90
56046;DHT22;41913;51.030;3.706;2022-07-23T14:18:04;30.70;58.00
56046;DHT22;41913;51.030;3.706;2022-07-23T14:20:29;30.70;58.70
56046;DHT22;41913;51.030;3.706;2022-07-23T14:22:55;30.70;57.20
56046;DHT22;41913;51.030;3.706;2022-07-23T14:25:24;30.90;57.30
56046;DHT22;41913;51.030;3.706;2022-07-23T14:27:49;31.10;56.60
56046;DHT22;41913;51.030;3.706;2022-07-23T14:30:15;31.00;57.30
56046;DHT22;41913;51.030;3.706;2022-07-23T14:32:41;30.80;57.60
56046;DHT22;41913;51.030;3.706;2022-07-23T14:35:07;30.90;57.50
56046;DHT22;41913;51.030;3.706;2022-07-23T14:37:32;31.00;57.50
56046;DHT22;41913;51.030;3.706;2022-07-23T14:39:58;30.90;57.00
56046;DHT22;41913;51.030;3.706;2022-07-23T14:42:25;31.10;58.00
56046;DHT22;41913;51.030;3.706;2022-07-23T14:44:50;31.10;57.90
56046;DHT22;41913;51.030;3.706;2022-07-23T14:47:16;30.90;57.70
56046;DHT22;41913;51.030;3.706;2022-07-23T14:49:42;30.70;58.90
56046;DHT22;41913;51.030;3.706;2022-07-23T14:52:08;30.50;58.10
56046;DHT22;41913;51.030;3.706;2022-07-23T14:54:34;30.60;58.80
56046;DHT22;41913;51.030;3.706;2022-07-23T14:57:01;30.50;58.30
56046;DHT22;41913;51.030;3.706;2022-07-23T14:59:28;30.70;58.40
56046;DHT22;41913;51.030;3.706;2022-07-23T15:01:54;30.60;58.40
56046;DHT22;41913;51.030;3.706;2022-07-23T15:04:20;30.50;58.90
56046;DHT22;41913;51.030;3.706;2022-07-23T15:06:45;30.30;57.90
56046;DHT22;41913;51.030;3.706;2022-07-23T15:09:11;30.40;58.00
56046;DHT22;41913;51.030;3.706;2022-07-23T15:11:37;30.80;58.80
56046;DHT22;41913;51.030;3.706;2022-07-23T15:14:07;31.00;58.20
56046;DHT22;41913;51.030;3.706;2022-07-23T15:16:36;31.10;58.00
56046;DHT22;41913;51.030;3.706;2022-07-23T15:19:02;31.20;58.20
56046;DHT22;41913;51.030;3.706;2022-07-23T15:21:29;31.30;57.40
56046;DHT22;41913;51.030;3.706;2022-07-23T15:23:58;31.30;57.80
56046;DHT22;41913;51.030;3.706;2022-07-23T15:26:26;31.40;57.80
56046;DHT22;41913;51.030;3.706;2022-07-23T15:28:53;31.20;57.50
56046;DHT22;41913;51.030;3.706;2022-07-23T15:31:18;31.10;58.10
56046;DHT22;41913;51.030;3.706;2022-07-23T15:33:44;31.20;57.60
56046;DHT22;41913;51.030;3.706;2022-07-23T15:36:10;31.20;57.90
56046;DHT22;41913;51.030;3.706;2022-07-23T15:38:41;31.00;58.00
56046;DHT22;41913;51.030;3.706;2022-07-23T15:41:07;30.80;58.00
56046;DHT22;41913;51.030;3.706;2022-07-23T15:43:34;30.40;58.40
56046;DHT22;41913;51.030;3.706;2022-07-23T15:46:00;30.40;58.30
56046;DHT22;41913;51.030;3.706;2022-07-23T15:48:26;30.20;58.30
56046;DHT22;41913;51.030;3.706;2022-07-23T15:50:51;30.20;58.80
56046;DHT22;41913;51.030;3.706;2022-07-23T15:53:18;30.50;59.30
56046;DHT22;41913;51.030;3.706;2022-07-23T15:55:45;30.50;59.10
56046;DHT22;41913;51.030;3.706;2022-07-23T15:58:12;30.60;59.50
56046;DHT22;41913;51.030;3.706;2022-07-23T16:00:38;30.70;58.90
56046;DHT22;41913;51.030;3.706;2022-07-23T16:03:04;30.90;58.00
56046;DHT22;41913;51.030;3.706;2022-07-23T16:05:30;31.00;59.00
56046;DHT22;41913;51.030;3.706;2022-07-23T16:07:56;30.60;58.80
56046;DHT22;41913;51.030;3.706;2022-07-23T16:10:23;30.70;57.70
56046;DHT22;41913;51.030;3.706;2022-07-23T16:12:49;31.00;58.50
56046;DHT22;41913;51.030;3.706;2022-07-23T16:15:14;31.00;58.70
56046;DHT22;41913;51.030;3.706;2022-07-23T16:17:40;30.70;58.80
56046;DHT22;41913;51.030;3.706;2022-07-23T16:20:06;30.80;58.10